createdAt,value
2022-08-18T00:01:07.680Z,20.20
2022-08-18T00:03:56.937Z,20.20
2022-08-18T00:06:22.069Z,20.20
2022-08-18T00:08:48.850Z,20.20
2022-08-18T00:11:40.526Z,20.20
2022-08-18T00:14:13.869Z,20.20
2022-08-18T00:16:52.303Z,20.10
2022-08-18T00:19:19.251Z,20.20
2022-08-18T00:21:46.132Z,20.30
2022-08-18T00:24:13.023Z,20.20
2022-08-18T00:26:39.900Z,20.30
2022-08-18T00:29:08.462Z,20.30
2022-08-18T00:31:35.812Z,20.20
2022-08-18T00:34:02.720Z,20.10
2022-08-18T00:36:32.174Z,20.10
2022-08-18T00:38:59.065Z,20.00
2022-08-18T00:41:26.709Z,20.00
2022-08-18T00:43:55.559Z,20.00
2022-08-18T00:46:26.948Z,20.00
2022-08-18T00:48:54.051Z,20.00
2022-08-18T00:51:37.313Z,20.00
2022-08-18T00:54:10.917Z,20.00
2022-08-18T00:56:46.081Z,20.10
2022-08-18T00:59:34.119Z,20.10
2022-08-18T01:02:04.147Z,20.20
2022-08-18T01:04:42.507Z,20.20
2022-08-18T01:07:20.484Z,20.20
2022-08-18T01:09:48.989Z,20.20
2022-08-18T01:12:44.165Z,20.30
2022-08-18T01:15:02.918Z,20.30
2022-08-18T01:17:48.430Z,20.40
2022-08-18T01:20:41.211Z,20.40
2022-08-18T01:23:15.686Z,20.40
2022-08-18T01:26:03.026Z,20.50
2022-08-18T01:28:41.921Z,20.50
2022-08-18T01:31:10.365Z,20.60
2022-08-18T01:33:41.268Z,20.60
2022-08-18T01:36:19.654Z,20.70
2022-08-18T01:38:50.168Z,20.80
2022-08-18T01:41:26.572Z,20.80
2022-08-18T01:43:56.205Z,20.70
2022-08-18T01:46:23.818Z,20.70
2022-08-18T01:48:51.254Z,20.70
2022-08-18T01:51:20.445Z,20.70
2022-08-18T01:54:07.922Z,20.80
2022-08-18T01:56:34.794Z,20.80
2022-08-18T01:59:01.590Z,20.80
2022-08-18T02:01:36.707Z,20.70
2022-08-18T02:04:33.187Z,20.70
2022-08-18T02:06:54.361Z,20.70
2022-08-18T02:09:23.665Z,20.60
2022-08-18T02:11:53.097Z,20.50
2022-08-18T02:14:25.269Z,20.40
2022-08-18T02:17:00.999Z,20.40
2022-08-18T02:19:38.386Z,20.30
2022-08-18T02:22:07.297Z,20.30
2022-08-18T02:24:34.155Z,20.30
2022-08-18T02:27:01.197Z,20.20
2022-08-18T02:29:28.269Z,20.20
2022-08-18T02:31:55.290Z,20.10
2022-08-18T02:34:22.419Z,20.10
2022-08-18T02:36:49.936Z,20.00
2022-08-18T02:39:16.736Z,20.00
2022-08-18T02:41:43.880Z,19.90
2022-08-18T02:44:13.767Z,19.90
2022-08-18T02:46:40.754Z,19.90
2022-08-18T02:49:08.119Z,19.90
2022-08-18T02:51:35.863Z,19.90
2022-08-18T02:54:05.258Z,19.80
2022-08-18T02:56:40.812Z,19.90
2022-08-18T02:59:11.554Z,19.80
2022-08-18T03:01:41.389Z,19.80
2022-08-18T03:04:10.929Z,19.80
2022-08-18T03:06:39.145Z,19.80
2022-08-18T03:09:08.966Z,19.70
2022-08-18T03:11:37.131Z,19.80
2022-08-18T03:14:05.518Z,19.80
2022-08-18T03:16:33.281Z,19.80
2022-08-18T03:19:01.153Z,19.80
2022-08-18T03:21:31.193Z,19.80
2022-08-18T03:24:00.974Z,19.80
2022-08-18T03:26:30.320Z,19.90
2022-08-18T03:28:58.863Z,19.90
2022-08-18T03:31:28.266Z,19.90
2022-08-18T03:33:59.093Z,19.90
2022-08-18T03:36:31.848Z,19.90
2022-08-18T03:39:01.669Z,19.90
2022-08-18T03:41:44.418Z,20.00
2022-08-18T03:44:15.993Z,20.00
2022-08-18T03:46:44.424Z,20.00
2022-08-18T03:49:12.362Z,20.00
2022-08-18T03:51:43.604Z,20.00
2022-08-18T03:54:13.186Z,20.00
2022-08-18T03:56:41.606Z,20.10
2022-08-18T03:59:12.529Z,20.10
2022-08-18T04:01:41.395Z,20.10
2022-08-18T04:04:15.151Z,20.10
2022-08-18T04:06:53.971Z,20.20
2022-08-18T04:09:22.282Z,20.20
2022-08-18T04:11:49.612Z,20.20
2022-08-18T04:14:23.993Z,20.20
2022-08-18T04:16:51.631Z,20.20
2022-08-18T04:19:26.860Z,20.20
2022-08-18T04:21:56.756Z,20.30
2022-08-18T04:24:24.435Z,20.40
2022-08-18T04:26:51.834Z,20.40
2022-08-18T04:29:21.323Z,20.40
2022-08-18T04:31:50.219Z,20.40
2022-08-18T04:34:18.022Z,20.30
2022-08-18T04:36:44.883Z,20.30
2022-08-18T04:39:13.257Z,20.40
2022-08-18T04:41:43.472Z,20.30
2022-08-18T04:44:12.414Z,20.30
2022-08-18T04:46:43.827Z,20.30
2022-08-18T04:49:12.418Z,20.30
2022-08-18T04:52:38.362Z,20.30
2022-08-18T04:54:52.679Z,20.30
2022-08-18T04:57:20.965Z,20.20
2022-08-18T04:59:50.662Z,20.10
2022-08-18T05:02:18.975Z,20.00
2022-08-18T05:04:49.096Z,20.00
2022-08-18T05:07:19.842Z,20.00
2022-08-18T05:09:47.047Z,19.90
2022-08-18T05:12:15.543Z,19.90
2022-08-18T05:14:47.107Z,19.90
2022-08-18T05:17:17.654Z,20.00
2022-08-18T05:19:45.790Z,20.00
2022-08-18T05:22:17.866Z,20.00
2022-08-18T05:24:46.046Z,20.00
2022-08-18T05:27:13.584Z,20.00
2022-08-18T05:29:41.815Z,20.10
2022-08-18T05:32:37.355Z,20.10
2022-08-18T05:35:08.429Z,20.10
2022-08-18T05:38:12.086Z,20.10
2022-08-18T05:40:38.864Z,20.20
2022-08-18T05:43:08.009Z,20.20
2022-08-18T05:45:35.561Z,20.20
2022-08-18T05:48:02.637Z,20.20
2022-08-18T05:53:18.383Z,20.20
2022-08-18T05:56:21.748Z,20.20
2022-08-18T05:58:55.412Z,20.30
2022-08-18T06:01:33.125Z,20.30
2022-08-18T06:04:08.702Z,20.30
2022-08-18T06:06:37.110Z,20.30
2022-08-18T06:09:19.297Z,20.40
2022-08-18T06:11:47.153Z,20.30
2022-08-18T06:14:14.136Z,20.30
2022-08-18T06:17:12.055Z,20.30
2022-08-18T06:20:14.898Z,20.40
2022-08-18T06:22:56.642Z,20.40
2022-08-18T06:25:30.516Z,20.50
2022-08-18T06:28:24.234Z,20.50
2022-08-18T06:30:59.377Z,20.50
2022-08-18T06:33:41.018Z,20.60
2022-08-18T06:36:32.279Z,20.60
2022-08-18T06:39:26.891Z,20.60
2022-08-18T06:41:54.477Z,20.60
2022-08-18T06:44:24.163Z,20.70
2022-08-18T06:46:56.507Z,20.70
2022-08-18T06:49:40.353Z,20.60
2022-08-18T06:52:30.564Z,20.70
2022-08-18T06:55:01.565Z,20.70
2022-08-18T06:57:39.293Z,20.70
2022-08-18T07:00:19.501Z,20.70
2022-08-18T07:02:49.006Z,20.70
2022-08-18T07:05:29.033Z,20.70
2022-08-18T07:08:18.626Z,20.70
2022-08-18T07:10:52.311Z,20.70
2022-08-18T07:13:26.508Z,20.70
2022-08-18T07:16:57.129Z,20.70
2022-08-18T07:19:32.067Z,20.70
2022-08-18T07:22:09.242Z,20.70
2022-08-18T07:24:39.929Z,20.70
2022-08-18T07:27:07.258Z,20.70
2022-08-18T07:29:56.990Z,20.70
2022-08-18T07:32:32.308Z,20.60
2022-08-18T07:35:03.465Z,20.60
2022-08-18T07:37:41.316Z,20.70
2022-08-18T07:40:47.025Z,20.80
2022-08-18T07:43:41.799Z,20.90
2022-08-18T07:46:35.340Z,21.00
2022-08-18T07:49:05.520Z,21.00
2022-08-18T07:51:47.663Z,21.10
2022-08-18T07:54:48.983Z,21.00
2022-08-18T07:57:44.790Z,21.00
2022-08-18T08:03:37.553Z,21.00
2022-08-18T08:06:25.295Z,21.00
2022-08-18T08:09:10.143Z,21.00
2022-08-18T08:11:57.025Z,21.00
2022-08-18T08:14:45.816Z,21.00
2022-08-18T08:17:19.093Z,21.00
2022-08-18T08:20:00.820Z,21.00
2022-08-18T08:23:01.258Z,21.00
2022-08-18T08:26:00.647Z,21.00
2022-08-18T08:28:55.987Z,21.20
2022-08-18T08:31:37.948Z,21.20
2022-08-18T08:34:23.821Z,21.20
2022-08-18T08:36:57.328Z,21.20
2022-08-18T08:39:35.625Z,21.20
2022-08-18T08:42:30.437Z,21.30
2022-08-18T08:45:10.685Z,21.40
2022-08-18T08:47:49.454Z,21.50
2022-08-18T08:50:21.240Z,21.60
2022-08-18T08:52:57.568Z,21.70
2022-08-18T08:55:29.471Z,21.80
2022-08-18T08:58:19.374Z,22.00
2022-08-18T09:00:47.998Z,22.20
2022-08-18T09:03:30.472Z,22.50
2022-08-18T09:06:09.425Z,22.50
2022-08-18T09:09:14.247Z,22.60
2022-08-18T09:12:15.230Z,22.70
2022-08-18T09:15:12.719Z,22.80
2022-08-18T09:18:27.136Z,22.90
2022-08-18T09:21:12.957Z,23.10
2022-08-18T09:23:48.201Z,23.40
2022-08-18T09:26:42.342Z,23.60
2022-08-18T09:29:47.210Z,23.70
2022-08-18T09:32:24.116Z,23.90
2022-08-18T09:34:51.451Z,24.10
2022-08-18T09:37:26.972Z,24.10
2022-08-18T09:40:59.287Z,24.20
2022-08-18T09:43:36.767Z,24.20
2022-08-18T09:46:06.113Z,24.10
2022-08-18T09:48:43.292Z,24.10
2022-08-18T09:51:17.679Z,23.90
2022-08-18T09:53:52.577Z,23.90
2022-08-18T09:56:54.346Z,23.90
2022-08-18T09:59:35.165Z,23.90
2022-08-18T10:02:28.282Z,23.90
2022-08-18T10:05:17.188Z,23.70
2022-08-18T10:07:48.720Z,23.70
2022-08-18T10:11:02.106Z,23.70
2022-08-18T10:13:15.461Z,23.70
2022-08-18T10:15:51.585Z,23.80
2022-08-18T10:18:46.546Z,23.70
2022-08-18T10:21:31.596Z,23.70
2022-08-18T10:26:55.532Z,23.70
2022-08-18T10:29:28.590Z,23.60
2022-08-18T10:32:01.491Z,23.70
2022-08-18T10:37:46.238Z,23.40
2022-08-18T10:43:46.187Z,23.30
2022-08-18T10:46:25.400Z,23.40
2022-08-18T10:49:12.438Z,23.50
2022-08-18T10:52:03.536Z,23.80
2022-08-18T10:58:30.283Z,24.20
2022-08-18T11:01:07.517Z,24.60
2022-08-18T11:03:51.497Z,25.50
2022-08-18T11:06:26.674Z,26.20
2022-08-18T11:08:59.074Z,26.80
2022-08-18T11:11:41.334Z,27.30
2022-08-18T11:14:37.377Z,27.50
2022-08-18T11:17:20.972Z,28.00
2022-08-18T11:19:50.763Z,28.50
2022-08-18T11:22:34.421Z,28.80
2022-08-18T11:25:18.711Z,28.70
2022-08-18T11:27:48.436Z,28.40
2022-08-18T11:30:17.732Z,28.60
2022-08-18T11:32:52.193Z,29.80
2022-08-18T11:35:31.617Z,31.30
2022-08-18T11:38:01.792Z,32.10
2022-08-18T11:43:40.981Z,34.30
2022-08-18T11:46:13.893Z,34.10
2022-08-18T11:51:36.977Z,33.80
2022-08-18T11:54:12.723Z,33.40
2022-08-18T11:56:39.520Z,32.90
2022-08-18T11:59:52.459Z,32.70
2022-08-18T12:02:17.860Z,31.60
2022-08-18T12:04:50.466Z,30.90
2022-08-18T12:07:26.640Z,30.90
2022-08-18T12:10:16.463Z,31.30
2022-08-18T12:17:32.964Z,32.80
2022-08-18T12:27:31.876Z,34.40
2022-08-18T12:30:01.750Z,35.50
2022-08-18T12:35:21.942Z,36.20
2022-08-18T12:38:12.268Z,36.60
2022-08-18T12:40:37.019Z,36.10
2022-08-18T12:45:51.164Z,35.90
2022-08-18T12:48:18.781Z,35.20
2022-08-18T12:50:58.606Z,35.00
2022-08-18T12:53:29.946Z,35.50
2022-08-18T12:56:30.340Z,35.60
2022-08-18T12:59:04.287Z,35.30
2022-08-18T13:01:33.435Z,35.70
2022-08-18T13:04:11.236Z,36.40
2022-08-18T13:06:58.799Z,36.40
2022-08-18T13:09:35.607Z,35.70
2022-08-18T13:12:43.767Z,35.60
2022-08-18T13:15:11.165Z,36.60
2022-08-18T13:17:41.546Z,37.70
2022-08-18T13:20:15.994Z,38.20
2022-08-18T13:22:43.636Z,38.40
2022-08-18T13:25:28.882Z,38.40
2022-08-18T13:28:01.755Z,39.10
2022-08-18T13:30:31.216Z,39.30
2022-08-18T13:33:06.071Z,40.00
2022-08-18T13:35:54.010Z,40.00
2022-08-18T13:38:27.180Z,38.90
2022-08-18T13:40:58.734Z,37.90
2022-08-18T13:43:36.032Z,37.40
2022-08-18T13:46:07.151Z,37.40
2022-08-18T13:48:37.713Z,37.90
2022-08-18T13:51:05.701Z,38.30
2022-08-18T13:53:50.536Z,39.20
2022-08-18T13:56:19.310Z,39.70
2022-08-18T13:58:53.426Z,40.20
2022-08-18T14:01:45.086Z,40.90
2022-08-18T14:04:12.555Z,40.20
2022-08-18T14:06:51.272Z,40.10
2022-08-18T14:09:35.978Z,39.80
2022-08-18T14:12:15.972Z,40.30
2022-08-18T14:14:52.131Z,40.50
2022-08-18T14:17:22.464Z,40.90
2022-08-18T14:20:14.732Z,41.60
2022-08-18T14:23:01.143Z,41.10
2022-08-18T14:25:46.536Z,41.20
2022-08-18T14:28:14.064Z,40.00
2022-08-18T14:30:54.694Z,39.20
2022-08-18T14:33:34.069Z,38.70
2022-08-18T14:36:12.198Z,37.80
2022-08-18T14:38:40.044Z,37.90
2022-08-18T14:41:10.236Z,38.30
2022-08-18T14:44:10.861Z,38.50
2022-08-18T14:46:30.501Z,39.10
2022-08-18T14:49:00.031Z,39.00
2022-08-18T14:51:33.614Z,39.30
2022-08-18T14:54:01.543Z,39.30
2022-08-18T14:56:29.394Z,38.50
2022-08-18T14:58:56.846Z,38.70
2022-08-18T15:01:24.608Z,37.90
2022-08-18T15:03:54.419Z,36.50
2022-08-18T15:06:23.058Z,35.40
2022-08-18T15:08:56.954Z,34.60
2022-08-18T15:11:24.931Z,33.50
2022-08-18T15:13:55.119Z,33.50
2022-08-18T15:16:31.583Z,33.50
2022-08-18T15:18:59.590Z,33.20
2022-08-18T15:21:46.699Z,32.40
2022-08-18T15:24:34.080Z,32.00
2022-08-18T15:27:10.476Z,31.60
2022-08-18T15:29:46.318Z,31.50
2022-08-18T15:32:17.528Z,31.30
2022-08-18T15:34:46.998Z,31.10
2022-08-18T15:37:19.483Z,30.90
2022-08-18T15:39:51.851Z,30.90
2022-08-18T15:42:23.751Z,30.80
2022-08-18T15:44:53.504Z,30.60
2022-08-18T15:47:21.374Z,30.40
2022-08-18T15:49:48.730Z,30.20
2022-08-18T15:52:17.918Z,30.00
2022-08-18T15:54:50.420Z,29.80
2022-08-18T15:57:34.273Z,29.80
2022-08-18T16:00:05.759Z,29.80
2022-08-18T16:02:40.201Z,30.10
2022-08-18T16:05:10.146Z,30.70
2022-08-18T16:07:41.340Z,31.70
2022-08-18T16:10:22.414Z,32.50
2022-08-18T16:12:50.067Z,33.40
2022-08-18T16:15:19.928Z,33.50
2022-08-18T16:17:50.302Z,33.40
2022-08-18T16:20:18.822Z,33.00
2022-08-18T16:22:48.276Z,32.40
2022-08-18T16:25:16.407Z,32.00
2022-08-18T16:27:48.014Z,31.80
2022-08-18T16:30:22.058Z,31.60
2022-08-18T16:32:49.774Z,31.20
2022-08-18T16:35:18.734Z,30.70
2022-08-18T16:37:49.572Z,30.40
2022-08-18T16:40:18.569Z,29.80
2022-08-18T16:42:46.050Z,29.60
2022-08-18T16:45:14.834Z,29.40
2022-08-18T16:47:42.105Z,29.20
2022-08-18T16:50:12.328Z,29.10
2022-08-18T16:52:39.880Z,29.10
2022-08-18T16:55:08.466Z,29.00
2022-08-18T16:57:56.839Z,28.90
2022-08-18T17:00:44.061Z,28.80
2022-08-18T17:03:29.789Z,28.70
2022-08-18T17:06:22.453Z,28.50
2022-08-18T17:08:49.324Z,28.40
2022-08-18T17:11:18.890Z,28.20
2022-08-18T17:13:47.196Z,28.10
2022-08-18T17:16:14.754Z,28.00
2022-08-18T17:18:42.507Z,27.90
2022-08-18T17:21:12.756Z,27.70
2022-08-18T17:23:40.560Z,27.70
2022-08-18T17:26:12.604Z,27.60
2022-08-18T17:28:50.471Z,27.50
2022-08-18T17:31:20.809Z,27.30
2022-08-18T17:33:47.639Z,27.30
2022-08-18T17:36:27.082Z,27.20
2022-08-18T17:39:01.099Z,27.10
2022-08-18T17:41:28.311Z,27.00
2022-08-18T17:43:57.369Z,27.00
2022-08-18T17:46:41.325Z,27.00
2022-08-18T17:49:13.161Z,26.80
2022-08-18T17:51:55.394Z,26.80
2022-08-18T17:54:42.010Z,26.70
2022-08-18T17:57:29.409Z,26.70
2022-08-18T18:00:12.820Z,26.70
2022-08-18T18:02:42.443Z,26.60
2022-08-18T18:05:12.779Z,26.60
2022-08-18T18:07:57.235Z,26.50
2022-08-18T18:10:27.584Z,26.40
2022-08-18T18:13:23.844Z,26.40
2022-08-18T18:15:55.562Z,26.20
2022-08-18T18:18:41.895Z,26.20
2022-08-18T18:21:22.835Z,26.10
2022-08-18T18:24:09.620Z,26.10
2022-08-18T18:26:39.871Z,26.10
2022-08-18T18:29:21.031Z,26.00
2022-08-18T18:31:58.216Z,26.00
2022-08-18T18:34:39.713Z,25.90
2022-08-18T18:37:25.319Z,25.90
2022-08-18T18:39:58.619Z,25.80
2022-08-18T18:42:28.617Z,25.80
2022-08-18T18:45:14.050Z,25.70
2022-08-18T18:48:03.100Z,25.70
2022-08-18T18:50:55.536Z,25.70
2022-08-18T18:53:43.034Z,25.60
2022-08-18T18:56:20.521Z,25.60
2022-08-18T18:59:35.369Z,25.50
2022-08-18T19:02:34.127Z,25.40
2022-08-18T19:05:21.324Z,25.20
2022-08-18T19:08:02.751Z,25.00
2022-08-18T19:10:37.745Z,24.80
2022-08-18T19:13:30.311Z,24.70
2022-08-18T19:16:24.034Z,24.50
2022-08-18T19:19:37.182Z,24.40
2022-08-18T19:22:03.330Z,24.20
2022-08-18T19:24:42.621Z,24.10
2022-08-18T19:27:25.706Z,23.90
2022-08-18T19:29:55.452Z,23.80
2022-08-18T19:32:32.285Z,23.80
2022-08-18T19:35:01.148Z,23.70
2022-08-18T19:38:18.706Z,23.60
2022-08-18T19:40:51.286Z,23.60
2022-08-18T19:43:41.339Z,23.60
2022-08-18T19:46:44.847Z,23.60
2022-08-18T19:49:22.864Z,23.60
2022-08-18T19:51:57.417Z,23.60
2022-08-18T19:54:59.484Z,23.60
2022-08-18T19:57:55.184Z,23.50
2022-08-18T20:00:56.625Z,23.50
2022-08-18T20:03:28.725Z,23.50
2022-08-18T20:06:33.850Z,23.50
2022-08-18T20:09:17.578Z,23.50
2022-08-18T20:12:13.635Z,23.30
2022-08-18T20:14:45.084Z,23.30
2022-08-18T20:17:23.050Z,23.20
2022-08-18T20:19:52.561Z,23.30
2022-08-18T20:22:22.058Z,23.30
2022-08-18T20:25:06.023Z,23.30
2022-08-18T20:27:38.858Z,23.40
2022-08-18T20:30:29.309Z,23.40
2022-08-18T20:33:13.763Z,23.50
2022-08-18T20:35:58.249Z,23.50
2022-08-18T20:38:35.658Z,23.50
2022-08-18T20:41:26.537Z,23.50
2022-08-18T20:44:14.330Z,23.40
2022-08-18T20:47:10.597Z,23.40
2022-08-18T20:49:58.700Z,23.50
2022-08-18T20:52:41.582Z,23.40
2022-08-18T20:55:34.802Z,23.40
2022-08-18T20:58:18.334Z,23.50
2022-08-18T21:00:51.292Z,23.50
2022-08-18T21:03:22.625Z,23.50
2022-08-18T21:05:57.280Z,23.50
2022-08-18T21:08:31.708Z,23.50
2022-08-18T21:11:20.808Z,23.40
2022-08-18T21:14:03.817Z,23.40
2022-08-18T21:16:39.392Z,23.40
2022-08-18T21:19:08.603Z,23.40
2022-08-18T21:21:39.755Z,23.40
2022-08-18T21:24:18.456Z,23.40
2022-08-18T21:26:48.119Z,23.40
2022-08-18T21:29:16.245Z,23.40
2022-08-18T21:31:45.584Z,23.50
2022-08-18T21:34:18.478Z,23.40
2022-08-18T21:36:54.576Z,23.40
2022-08-18T21:39:22.013Z,23.40
2022-08-18T21:41:55.602Z,23.30
2022-08-18T21:44:33.447Z,23.30
2022-08-18T21:47:06.925Z,23.30
2022-08-18T21:49:33.983Z,23.30
2022-08-18T21:52:01.298Z,23.30
2022-08-18T21:54:34.410Z,23.20
2022-08-18T21:57:41.228Z,23.20
2022-08-18T22:00:12.109Z,23.10
2022-08-18T22:02:39.517Z,23.00
2022-08-18T22:05:07.418Z,23.00
2022-08-18T22:07:35.628Z,22.90
2022-08-18T22:10:47.259Z,22.90
2022-08-18T22:13:44.385Z,22.80
2022-08-18T22:16:38.004Z,22.70
2022-08-18T22:19:26.049Z,22.70
2022-08-18T22:22:01.876Z,22.60
2022-08-18T22:24:37.623Z,22.60
2022-08-18T22:27:17.882Z,22.60
2022-08-18T22:29:50.808Z,22.50
2022-08-18T22:32:21.297Z,22.40
2022-08-18T22:34:53.506Z,22.40
2022-08-18T22:37:23.899Z,22.40
2022-08-18T22:40:10.231Z,22.40
2022-08-18T22:42:38.468Z,22.40
2022-08-18T22:45:13.368Z,22.30
2022-08-18T22:47:42.805Z,22.30
2022-08-18T22:50:11.691Z,22.30
2022-08-18T22:52:43.342Z,22.30
2022-08-18T22:55:12.921Z,22.30
2022-08-18T22:57:42.885Z,22.20
2022-08-18T23:00:14.518Z,22.20
2022-08-18T23:02:42.241Z,22.10
2022-08-18T23:05:09.939Z,22.10
2022-08-18T23:07:36.968Z,22.00
2022-08-18T23:10:13.467Z,22.00
2022-08-18T23:12:43.006Z,22.00
2022-08-18T23:15:13.608Z,22.00
2022-08-18T23:17:42.052Z,21.90
2022-08-18T23:20:17.436Z,21.90
2022-08-18T23:22:45.735Z,21.90
2022-08-18T23:25:13.460Z,21.90
2022-08-18T23:27:41.229Z,21.80
2022-08-18T23:30:09.268Z,21.90
2022-08-18T23:32:36.422Z,21.80
2022-08-18T23:35:04.099Z,21.80
2022-08-18T23:37:31.740Z,21.80
2022-08-18T23:39:59.133Z,21.80
2022-08-18T23:42:26.102Z,21.80
2022-08-18T23:44:52.883Z,21.80
2022-08-18T23:47:20.829Z,21.80
2022-08-18T23:49:48.193Z,21.80
2022-08-18T23:52:15.192Z,21.80
2022-08-18T23:54:44.707Z,21.80
2022-08-18T23:57:11.670Z,21.80
2022-08-18T23:59:41.214Z,21.80
